Time;durP1;ratioP1;P1;durP2;ratioP2;P2;SDS_P1;SDS_P2;PMS_P1;PMS_P2;Temp;Humidity;BMP_temperature;BMP_pressure;BME280_temperature;BME280_humidity;BME280_pressure;Samples;Min_cycle;Max_cycle;Signal;HPM_P1;HPM_P2
2023/05/04 00:01:47;;;;;;;5.40;3.65;;;12.00;98.70;;;;;;4972956;28;20038;-77
2023/05/04 00:04:12;;;;;;;4.47;2.80;;;11.90;99.10;;;;;;4972853;28;20026;-78
2023/05/04 00:06:38;;;;;;;8.40;3.50;;;11.90;99.10;;;;;;4974263;28;20037;-78
2023/05/04 00:09:05;;;;;;;6.60;2.80;;;11.90;98.80;;;;;;4972912;28;20082;-78
2023/05/04 00:11:32;;;;;;;5.65;3.55;;;11.80;99.00;;;;;;4974267;28;20168;-77
2023/05/04 00:13:58;;;;;;;3.40;3.10;;;11.80;99.00;;;;;;4971942;28;20031;-78
2023/05/04 00:16:23;;;;;;;4.68;3.65;;;11.70;99.00;;;;;;4974011;28;20498;-78
2023/05/04 00:18:49;;;;;;;7.57;4.03;;;11.70;99.30;;;;;;4973930;28;20030;-77
2023/05/04 00:21:15;;;;;;;8.25;2.83;;;11.70;99.20;;;;;;4974018;28;20037;-78
2023/05/04 00:23:40;;;;;;;5.15;3.38;;;11.70;99.40;;;;;;4972715;28;20031;-78
2023/05/04 00:26:06;;;;;;;8.63;3.88;;;11.50;99.80;;;;;;4973870;28;20022;-78
2023/05/04 00:28:31;;;;;;;5.85;3.72;;;11.50;99.90;;;;;;4972489;28;20031;-78
2023/05/04 00:30:57;;;;;;;6.88;3.75;;;11.50;99.90;;;;;;4972237;28;20027;-77
2023/05/04 00:33:23;;;;;;;8.43;4.40;;;11.40;99.90;;;;;;4973788;28;20030;-77
2023/05/04 00:35:49;;;;;;;5.15;4.13;;;11.30;99.90;;;;;;4972425;28;20080;-77
2023/05/04 00:38:15;;;;;;;5.57;4.55;;;11.30;99.90;;;;;;4973831;28;20063;-78
2023/05/04 00:40:41;;;;;;;5.93;4.22;;;11.20;99.90;;;;;;4973717;28;20019;-78
2023/05/04 00:43:07;;;;;;;4.78;4.07;;;11.20;99.90;;;;;;4973667;28;20027;-78
2023/05/04 00:45:33;;;;;;;4.90;3.95;;;11.10;99.90;;;;;;4972364;28;20023;-78
2023/05/04 00:47:59;;;;;;;9.38;4.18;;;11.10;99.90;;;;;;4973461;28;20491;-78
2023/05/04 00:50:27;;;;;;;5.20;3.75;;;11.00;99.90;;;;;;4973616;28;20038;-77
2023/05/04 00:52:54;;;;;;;6.70;3.83;;;11.00;99.90;;;;;;4972446;28;20030;-77
2023/05/04 00:55:21;;;;;;;7.00;4.82;;;10.90;99.90;;;;;;4972193;28;20030;-78
2023/05/04 00:57:48;;;;;;;6.63;4.15;;;11.00;99.90;;;;;;4972099;28;20027;-77
2023/05/04 01:00:14;;;;;;;6.35;4.25;;;11.00;99.90;;;;;;4972195;28;20038;-77
2023/05/04 01:02:40;;;;;;;6.88;4.57;;;10.90;99.90;;;;;;4973273;28;20026;-77
2023/05/04 01:05:07;;;;;;;5.90;3.75;;;10.90;99.90;;;;;;4972017;28;20122;-77
2023/05/04 01:07:46;;;;;;;6.45;4.53;;;10.90;99.90;;;;;;4973297;28;20023;-77
2023/05/04 01:10:19;;;;;;;6.70;4.43;;;10.90;99.90;;;;;;4972179;28;20061;-78
2023/05/04 01:12:54;;;;;;;5.03;4.03;;;10.80;99.90;;;;;;4973278;28;20497;-78
2023/05/04 01:15:21;;;;;;;6.05;4.25;;;10.70;99.90;;;;;;4973161;28;20027;-79
2023/05/04 01:17:47;;;;;;;7.63;4.72;;;10.60;99.90;;;;;;4973132;28;20483;-77
2023/05/04 01:20:12;;;;;;;9.52;5.30;;;10.60;99.90;;;;;;4971978;28;20037;-78
2023/05/04 01:22:38;;;;;;;6.22;4.18;;;10.60;99.90;;;;;;4973087;28;20098;-78
2023/05/04 01:25:05;;;;;;;7.75;4.65;;;10.50;99.90;;;;;;4974496;28;20077;-78
2023/05/04 01:27:37;;;;;;;6.32;4.38;;;10.40;99.90;;;;;;4978058;28;20026;-78
2023/05/04 01:30:09;;;;;;;5.80;4.22;;;10.40;99.90;;;;;;4979117;28;20388;-78
2023/05/04 01:32:36;;;;;;;9.45;4.53;;;10.30;99.90;;;;;;4979482;28;20515;-77
2023/05/04 01:35:02;;;;;;;6.50;4.20;;;10.30;99.90;;;;;;4979425;28;20502;-77
2023/05/04 01:37:27;;;;;;;5.97;4.93;;;10.20;99.90;;;;;;4978299;28;20027;-77
2023/05/04 01:39:53;;;;;;;6.40;4.05;;;10.20;99.90;;;;;;4978203;28;20023;-78
2023/05/04 01:42:19;;;;;;;7.40;4.40;;;10.10;99.90;;;;;;4979430;28;20384;-77
2023/05/04 01:44:44;;;;;;;6.10;4.10;;;10.00;99.90;;;;;;4979278;28;20500;-78
2023/05/04 01:47:10;;;;;;;6.10;4.20;;;9.90;99.90;;;;;;4979492;28;20502;-77
2023/05/04 01:49:36;;;;;;;7.30;4.75;;;9.80;99.90;;;;;;4979324;28;20475;-77
2023/05/04 01:52:01;;;;;;;9.07;4.03;;;9.70;99.90;;;;;;4978074;28;20030;-78
2023/05/04 01:54:27;;;;;;;5.18;3.65;;;9.70;99.90;;;;;;4979368;28;20034;-79
2023/05/04 01:56:53;;;;;;;6.43;4.30;;;9.60;99.90;;;;;;4979329;28;20031;-78
2023/05/04 01:59:18;;;;;;;5.50;3.85;;;9.50;99.90;;;;;;4977906;28;20675;-77
2023/05/04 02:01:44;;;;;;;6.05;4.32;;;9.50;99.90;;;;;;4979151;28;20026;-78
2023/05/04 02:04:10;;;;;;;6.88;4.30;;;9.40;99.90;;;;;;4979169;28;20023;-77
2023/05/04 02:06:35;;;;;;;6.30;3.60;;;9.30;99.90;;;;;;4979195;28;20462;-77
2023/05/04 02:09:02;;;;;;;5.47;4.05;;;9.20;99.90;;;;;;4977966;28;20027;-76
2023/05/04 02:11:28;;;;;;;5.97;3.55;;;9.10;99.90;;;;;;4977997;28;20360;-78
2023/05/04 02:13:53;;;;;;;5.93;4.32;;;9.00;99.90;;;;;;4979180;28;20091;-77
2023/05/04 02:16:19;;;;;;;6.03;4.15;;;8.90;99.90;;;;;;4978997;28;20032;-77
2023/05/04 02:18:45;;;;;;;9.70;4.68;;;8.90;99.90;;;;;;4977765;28;20030;-77
2023/05/04 02:21:12;;;;;;;5.88;3.67;;;8.80;99.90;;;;;;4979068;28;20069;-77
2023/05/04 02:23:37;;;;;;;10.07;4.55;;;8.70;99.90;;;;;;4977923;28;20442;-77
2023/05/04 02:26:03;;;;;;;6.13;3.97;;;8.70;99.90;;;;;;4977644;28;20027;-78
2023/05/04 02:28:28;;;;;;;6.53;4.35;;;8.60;99.90;;;;;;4978990;28;20045;-77
2023/05/04 02:30:54;;;;;;;4.32;3.63;;;8.50;99.90;;;;;;4977338;28;20027;-77
2023/05/04 02:33:20;;;;;;;5.88;4.30;;;8.40;99.90;;;;;;4977777;28;20053;-77
2023/05/04 02:35:45;;;;;;;7.25;4.90;;;8.50;99.90;;;;;;4977107;28;20403;-77
2023/05/04 02:38:11;;;;;;;8.30;4.85;;;8.40;99.90;;;;;;4975062;28;20487;-77
2023/05/04 02:40:36;;;;;;;7.50;5.25;;;8.30;99.90;;;;;;4975926;28;20442;-77
2023/05/04 02:43:02;;;;;;;9.25;4.40;;;8.20;99.90;;;;;;4975918;28;20030;-77
2023/05/04 02:45:28;;;;;;;8.23;4.45;;;8.20;99.90;;;;;;4974473;28;20356;-77
2023/05/04 02:47:53;;;;;;;6.75;4.45;;;8.20;99.90;;;;;;4974437;28;20027;-77
2023/05/04 02:50:19;;;;;;;5.80;4.05;;;8.20;99.90;;;;;;4975816;28;20035;-78
2023/05/04 02:52:45;;;;;;;6.68;4.63;;;8.10;99.90;;;;;;4975625;28;20033;-77
2023/05/04 02:55:10;;;;;;;5.10;3.80;;;8.00;99.90;;;;;;4974316;28;20030;-77
2023/05/04 02:57:36;;;;;;;5.63;3.80;;;7.90;99.90;;;;;;4975582;28;20510;-77
2023/05/04 03:00:04;;;;;;;9.00;3.92;;;7.80;99.90;;;;;;4975603;28;20038;-77
2023/05/04 03:02:30;;;;;;;9.05;4.13;;;7.80;99.90;;;;;;4975444;28;20118;-77
2023/05/04 03:04:55;;;;;;;9.35;4.50;;;7.70;99.90;;;;;;4975057;28;20058;-78
2023/05/04 03:07:21;;;;;;;6.80;4.25;;;7.60;99.90;;;;;;4975348;28;20077;-77
2023/05/04 03:09:47;;;;;;;4.63;3.90;;;7.60;99.90;;;;;;4974193;28;20026;-77
2023/05/04 03:12:12;;;;;;;5.78;4.38;;;7.50;99.90;;;;;;4974123;28;20027;-77
2023/05/04 03:14:38;;;;;;;4.65;4.00;;;7.50;99.90;;;;;;4973952;28;20033;-77
2023/05/04 03:17:04;;;;;;;9.35;4.07;;;7.40;99.90;;;;;;4975334;28;20395;-77
2023/05/04 03:19:29;;;;;;;6.45;4.80;;;7.40;99.90;;;;;;4975118;28;20615;-77
2023/05/04 03:21:55;;;;;;;9.82;5.30;;;7.30;99.90;;;;;;4973748;28;20404;-77
2023/05/04 03:24:21;;;;;;;10.88;4.32;;;7.20;99.90;;;;;;4973867;28;20037;-78
2023/05/04 03:26:46;;;;;;;6.25;4.30;;;7.20;99.90;;;;;;4975112;28;20030;-77
2023/05/04 03:29:12;;;;;;;6.18;4.03;;;7.20;99.90;;;;;;4974361;28;20454;-77
2023/05/04 03:31:38;;;;;;;6.80;4.18;;;7.10;99.90;;;;;;4973898;28;20031;-77
2023/05/04 03:34:03;;;;;;;5.95;4.05;;;7.00;99.90;;;;;;4974948;28;20082;-77
2023/05/04 03:36:29;;;;;;;7.93;4.95;;;7.00;99.90;;;;;;4973597;28;20117;-77
2023/05/04 03:38:55;;;;;;;8.05;4.53;;;6.90;99.90;;;;;;4974783;28;20023;-77
2023/05/04 03:41:21;;;;;;;8.43;4.45;;;6.90;99.90;;;;;;4974876;28;20023;-77
2023/05/04 03:43:46;;;;;;;6.15;4.10;;;6.90;99.90;;;;;;4973490;28;20093;-77
2023/05/04 03:46:13;;;;;;;8.27;4.20;;;6.80;99.90;;;;;;4973751;28;20468;-77
2023/05/04 03:48:39;;;;;;;7.78;4.03;;;6.80;99.90;;;;;;4973237;28;20026;-77
2023/05/04 03:51:05;;;;;;;5.72;3.40;;;6.80;99.90;;;;;;4974651;28;20082;-77
2023/05/04 03:53:33;;;;;;;9.10;4.18;;;6.80;99.90;;;;;;4974520;28;20030;-77
2023/05/04 03:55:59;;;;;;;6.35;4.35;;;6.80;99.90;;;;;;4974136;28;20027;-77
2023/05/04 03:58:25;;;;;;;10.43;4.07;;;6.90;99.90;;;;;;4974408;28;20058;-77
2023/05/04 04:00:51;;;;;;;3.15;2.83;;;6.90;99.90;;;;;;4974472;28;20030;-78
2023/05/04 04:03:17;;;;;;;10.70;5.03;;;8.50;99.90;;;;;;4975330;28;20472;-76
2023/05/04 04:05:42;;;;;;;7.10;4.40;;;8.30;99.90;;;;;;4973068;28;20450;-77
2023/05/04 04:08:08;;;;;;;6.88;5.00;;;8.00;99.90;;;;;;4974107;28;20019;-77
2023/05/04 04:10:34;;;;;;;7.30;5.53;;;7.70;99.90;;;;;;4975500;28;20027;-76
2023/05/04 04:12:59;;;;;;;10.43;6.35;;;7.40;99.90;;;;;;4973923;28;20169;-77
2023/05/04 04:15:25;;;;;;;7.25;5.05;;;7.40;99.90;;;;;;4973808;28;20038;-76
2023/05/04 04:17:51;;;;;;;9.02;6.07;;;7.20;99.90;;;;;;4974037;28;20030;-76
2023/05/04 04:20:17;;;;;;;7.53;5.13;;;7.20;99.90;;;;;;4974024;28;20033;-77
2023/05/04 04:22:43;;;;;;;7.53;5.95;;;7.20;99.90;;;;;;4973983;28;20030;-77
2023/05/04 04:25:09;;;;;;;7.40;5.13;;;7.10;99.90;;;;;;4972855;28;20587;-77
2023/05/04 04:27:35;;;;;;;6.55;4.40;;;7.20;99.90;;;;;;4973737;28;20069;-77
2023/05/04 04:30:02;;;;;;;6.13;4.50;;;7.20;99.90;;;;;;4973523;28;20023;-77
2023/05/04 04:32:28;;;;;;;6.03;4.40;;;7.30;99.90;;;;;;4973909;28;20022;-77
2023/05/04 04:34:54;;;;;;;10.80;4.40;;;7.40;99.90;;;;;;4972456;28;20034;-76
2023/05/04 04:37:20;;;;;;;5.38;4.25;;;7.50;99.90;;;;;;4972685;28;20033;-77
2023/05/04 04:39:46;;;;;;;8.13;4.47;;;7.50;99.90;;;;;;4973798;28;20027;-76
2023/05/04 04:42:12;;;;;;;7.03;4.97;;;7.50;99.90;;;;;;4973549;28;20439;-77
2023/05/04 04:44:38;;;;;;;12.05;8.18;;;7.50;99.90;;;;;;4972342;28;20022;-77
2023/05/04 04:47:04;;;;;;;12.18;7.97;;;7.50;99.90;;;;;;4972459;28;20468;-77
2023/05/04 04:49:29;;;;;;;8.32;5.45;;;7.60;99.90;;;;;;4972234;28;20023;-77
2023/05/04 04:51:55;;;;;;;7.10;5.22;;;7.60;99.90;;;;;;4973375;28;20038;-77
2023/05/04 04:54:21;;;;;;;7.97;5.68;;;7.70;99.90;;;;;;4973590;28;20098;-76
2023/05/04 04:56:46;;;;;;;8.38;5.53;;;7.70;99.90;;;;;;4972219;28;20028;-77
2023/05/04 04:59:12;;;;;;;8.65;5.60;;;7.80;99.90;;;;;;4972914;28;20026;-77
2023/05/04 05:01:38;;;;;;;10.85;5.57;;;8.00;99.90;;;;;;4972136;28;20037;-77
2023/05/04 05:04:04;;;;;;;8.60;6.07;;;8.00;99.90;;;;;;4973218;28;20102;-77
2023/05/04 05:06:30;;;;;;;10.48;5.35;;;8.10;99.90;;;;;;4972107;28;20409;-77
2023/05/04 05:08:55;;;;;;;11.60;6.15;;;8.20;99.90;;;;;;4972254;28;20018;-77
2023/05/04 05:11:21;;;;;;;7.50;4.97;;;8.30;99.90;;;;;;4972139;28;20033;-77
2023/05/04 05:13:47;;;;;;;9.48;5.80;;;8.40;99.90;;;;;;4972005;28;20182;-77
2023/05/04 05:16:12;;;;;;;6.38;4.68;;;8.60;99.90;;;;;;4973190;28;20134;-77
2023/05/04 05:18:38;;;;;;;8.75;5.30;;;8.70;99.90;;;;;;4973098;28;20026;-77
2023/05/04 05:21:04;;;;;;;8.02;5.25;;;8.80;99.90;;;;;;4973038;28;20392;-78
2023/05/04 05:23:30;;;;;;;7.18;4.95;;;8.90;99.90;;;;;;4973065;28;20027;-77
2023/05/04 05:25:56;;;;;;;6.88;5.30;;;8.90;99.90;;;;;;4972974;28;20097;-77
2023/05/04 05:28:22;;;;;;;8.05;4.47;;;9.10;99.90;;;;;;4972872;28;20023;-77
2023/05/04 05:30:50;;;;;;;6.80;4.65;;;9.20;99.90;;;;;;4971473;28;20038;-77
2023/05/04 05:33:16;;;;;;;10.68;5.07;;;9.30;99.90;;;;;;4973078;28;20025;-76
2023/05/04 05:35:42;;;;;;;8.57;5.47;;;9.40;99.90;;;;;;4971676;28;20459;-77
2023/05/04 05:38:09;;;;;;;9.15;5.25;;;9.50;99.90;;;;;;4972770;28;20399;-77
2023/05/04 05:40:35;;;;;;;8.35;6.03;;;9.50;99.90;;;;;;4971079;28;20027;-77
2023/05/04 05:43:01;;;;;;;6.93;5.10;;;9.70;99.90;;;;;;4970424;28;20023;-77
2023/05/04 05:45:27;;;;;;;6.70;4.55;;;9.90;99.90;;;;;;4972862;28;20027;-77
2023/05/04 05:47:53;;;;;;;9.10;4.97;;;10.00;99.90;;;;;;4972868;28;20019;-77
2023/05/04 05:50:19;;;;;;;8.82;5.60;;;10.20;99.90;;;;;;4971825;28;20114;-77
2023/05/04 05:52:44;;;;;;;8.18;5.20;;;10.30;99.90;;;;;;4971621;28;20484;-77
2023/05/04 05:55:10;;;;;;;8.25;5.97;;;10.40;99.90;;;;;;4972807;28;20035;-77
2023/05/04 05:57:36;;;;;;;11.82;6.47;;;10.50;99.90;;;;;;4972833;28;20035;-77
2023/05/04 06:00:03;;;;;;;7.40;4.93;;;10.70;99.90;;;;;;4971474;28;20050;-76
2023/05/04 06:02:29;;;;;;;7.70;4.93;;;10.80;99.90;;;;;;4971621;28;20458;-77
2023/05/04 06:04:55;;;;;;;6.47;4.95;;;10.90;99.90;;;;;;4971401;28;20121;-77
2023/05/04 06:07:21;;;;;;;5.63;4.40;;;11.10;99.90;;;;;;4971649;28;20027;-77
2023/05/04 06:09:46;;;;;;;5.97;4.20;;;11.30;99.90;;;;;;4979522;28;20030;-78
2023/05/04 06:12:12;;;;;;;4.38;3.83;;;11.50;99.90;;;;;;4984233;28;20083;-78
2023/05/04 06:14:41;;;;;;;5.28;4.15;;;11.70;99.90;;;;;;4981230;28;20483;-79
2023/05/04 06:17:08;;;;;;;6.15;3.95;;;11.90;99.90;;;;;;4988085;28;20057;-79
2023/05/04 06:19:36;;;;;;;6.38;4.10;;;12.10;99.90;;;;;;4988020;28;20033;-80
2023/05/04 06:22:02;;;;;;;6.00;3.85;;;12.30;99.90;;;;;;4998066;28;20043;-80
2023/05/04 06:24:29;;;;;;;5.30;3.47;;;12.50;99.90;;;;;;4982318;28;20030;-78
2023/05/04 06:26:55;;;;;;;5.30;3.90;;;12.60;99.80;;;;;;4979692;28;20027;-80
2023/05/04 06:29:21;;;;;;;3.80;3.20;;;12.60;98.70;;;;;;4978469;28;20030;-80
2023/05/04 06:31:47;;;;;;;6.07;3.03;;;12.70;98.90;;;;;;4983611;28;20027;-81
2023/05/04 06:34:14;;;;;;;5.35;3.45;;;12.90;97.70;;;;;;4981433;28;20115;-81
2023/05/04 06:36:40;;;;;;;7.00;3.42;;;13.00;97.80;;;;;;4984081;28;20027;-81
2023/05/04 06:39:05;;;;;;;4.13;3.05;;;13.30;97.30;;;;;;4979935;28;20511;-79
2023/05/04 06:44:24;;;;;;;5.30;3.25;;;13.70;94.70;;;;;;5257577;23;20055;-80
2023/05/04 06:46:50;;;;;;;3.50;2.47;;;13.80;93.90;;;;;;4963582;29;20070;-81
2023/05/04 06:49:16;;;;;;;4.65;2.58;;;14.10;93.10;;;;;;4965336;29;20086;-81
2023/05/04 06:51:42;;;;;;;2.88;2.50;;;14.10;91.30;;;;;;4959148;28;20034;-78
2023/05/04 06:54:08;;;;;;;2.78;2.50;;;14.40;91.90;;;;;;4962447;29;20031;-81
2023/05/04 06:56:34;;;;;;;3.63;2.50;;;14.60;90.40;;;;;;4964806;29;20778;-80
2023/05/04 06:58:59;;;;;;;3.38;2.80;;;14.80;90.20;;;;;;4962268;28;20148;-79
2023/05/04 07:01:25;;;;;;;5.85;3.20;;;15.00;90.00;;;;;;4959779;28;20042;-79
2023/05/04 07:03:51;;;;;;;3.10;2.80;;;15.10;88.10;;;;;;4956555;28;20031;-77
2023/05/04 07:06:17;;;;;;;4.32;3.03;;;15.30;85.70;;;;;;4957070;29;20024;-75
2023/05/04 07:08:43;;;;;;;6.18;3.13;;;15.40;84.20;;;;;;4954635;29;20023;-76
2023/05/04 07:11:09;;;;;;;4.40;2.80;;;15.40;85.00;;;;;;4958387;28;20554;-78
2023/05/04 07:13:34;;;;;;;5.00;2.90;;;15.60;85.40;;;;;;4954425;28;20023;-78
2023/05/04 07:16:00;;;;;;;3.88;2.20;;;15.60;80.90;;;;;;4956788;29;20031;-80
2023/05/04 07:18:26;;;;;;;4.68;2.25;;;15.60;82.30;;;;;;4955303;28;20134;-81
2023/05/04 07:20:51;;;;;;;2.88;2.42;;;14.50;82.30;;;;;;4955487;28;20118;-79
2023/05/04 07:23:17;;;;;;;4.72;2.40;;;15.80;83.80;;;;;;4954069;28;20023;-79
2023/05/04 07:25:43;;;;;;;3.85;2.28;;;15.70;80.50;;;;;;4955794;29;20086;-79
2023/05/04 07:28:08;;;;;;;3.97;2.33;;;15.70;81.70;;;;;;4955607;29;20123;-78
2023/05/04 07:30:34;;;;;;;3.22;2.30;;;15.90;80.00;;;;;;4955856;29;20452;-79
2023/05/04 07:33:00;;;;;;;3.47;2.33;;;16.00;78.60;;;;;;4955823;28;20055;-79
2023/05/04 07:35:25;;;;;;;3.60;2.40;;;16.20;78.00;;;;;;4955498;29;20492;-78
2023/05/04 07:37:51;;;;;;;4.53;2.95;;;16.10;77.10;;;;;;4954372;29;20027;-78
2023/05/04 07:40:17;;;;;;;3.50;2.58;;;16.00;77.00;;;;;;4953541;29;20545;-79
2023/05/04 07:42:43;;;;;;;3.90;2.38;;;16.10;75.90;;;;;;4954253;29;20029;-78
2023/05/04 07:45:09;;;;;;;8.63;2.47;;;16.30;75.60;;;;;;4955400;29;20353;-76
2023/05/04 07:47:35;;;;;;;3.63;2.30;;;16.30;73.70;;;;;;4955372;28;20019;-75
2023/05/04 07:50:02;;;;;;;7.32;1.80;;;16.30;75.20;;;;;;4953912;29;20502;-76
2023/05/04 07:52:28;;;;;;;1.73;1.63;;;16.50;73.30;;;;;;4954220;29;20102;-77
2023/05/04 07:54:53;;;;;;;2.60;1.92;;;16.70;75.20;;;;;;4956623;29;20033;-83
2023/05/04 07:57:19;;;;;;;2.58;2.00;;;16.80;72.00;;;;;;4953958;29;20031;-78
2023/05/04 07:59:45;;;;;;;2.72;1.85;;;17.00;71.50;;;;;;4954336;29;20034;-78
2023/05/04 08:02:11;;;;;;;2.28;1.90;;;17.00;70.00;;;;;;4955039;29;20058;-76
2023/05/04 08:04:37;;;;;;;2.72;1.65;;;16.70;68.80;;;;;;4953737;29;20087;-76
2023/05/04 08:07:02;;;;;;;3.40;1.40;;;16.70;69.50;;;;;;4953789;29;20034;-76
2023/05/04 08:09:28;;;;;;;2.30;2.08;;;16.80;70.20;;;;;;4954909;29;20426;-76
2023/05/04 08:11:54;;;;;;;2.72;1.60;;;16.90;69.20;;;;;;4954849;29;20046;-77
2023/05/04 08:14:19;;;;;;;3.25;1.50;;;17.00;67.70;;;;;;4955079;29;20102;-79
2023/05/04 08:16:46;;;;;;;3.47;1.70;;;17.10;68.00;;;;;;4955075;28;20667;-77
2023/05/04 08:19:11;;;;;;;1.90;1.52;;;17.20;68.60;;;;;;4954928;28;20027;-76
2023/05/04 08:21:39;;;;;;;1.30;1.20;;;17.20;66.50;;;;;;4953375;29;20027;-77
2023/05/04 08:24:05;;;;;;;2.92;1.85;;;17.10;63.70;;;;;;4954677;28;20020;-78
2023/05/04 08:26:30;;;;;;;3.70;1.60;;;17.10;64.90;;;;;;4953442;29;20395;-77
2023/05/04 08:29:06;;;;;;;1.02;0.93;;;17.10;65.90;;;;;;4954409;29;20027;-76
2023/05/04 08:31:32;;;;;;;1.25;1.00;;;17.20;60.40;;;;;;4952743;28;20476;-76
2023/05/04 08:33:57;;;;;;;1.55;1.10;;;17.40;60.60;;;;;;4952977;28;20039;-74
2023/05/04 08:36:23;;;;;;;4.25;1.60;;;17.60;58.50;;;;;;4954212;29;20563;-78
2023/05/04 08:38:49;;;;;;;6.13;1.88;;;17.70;61.00;;;;;;4953957;29;20114;-78
2023/05/04 08:41:15;;;;;;;5.07;1.10;;;17.90;58.90;;;;;;4954865;28;20028;-77
2023/05/04 08:43:42;;;;;;;1.48;0.93;;;17.90;55.60;;;;;;4952983;29;20480;-75
2023/05/04 08:46:09;;;;;;;1.30;0.98;;;17.90;53.80;;;;;;4954084;28;20451;-75
2023/05/04 08:48:35;;;;;;;2.58;1.65;;;17.50;53.10;;;;;;4952497;29;20020;-76
2023/05/04 08:51:03;;;;;;;2.92;0.80;;;17.60;52.60;;;;;;4952978;29;20027;-76
2023/05/04 08:53:30;;;;;;;2.08;1.00;;;17.60;51.90;;;;;;4954216;28;20031;-76
2023/05/04 08:56:02;;;;;;;2.45;1.05;;;17.70;52.60;;;;;;4953985;28;20038;-76
2023/05/04 08:58:30;;;;;;;1.52;1.27;;;17.70;51.70;;;;;;4954127;28;20023;-76
2023/05/04 09:00:58;;;;;;;1.95;0.98;;;18.00;52.60;;;;;;4952816;29;20031;-76
2023/05/04 09:03:24;;;;;;;3.00;0.95;;;18.10;50.50;;;;;;4952856;29;20027;-76
2023/05/04 09:05:51;;;;;;;4.03;1.23;;;18.20;50.70;;;;;;4953639;28;20476;-76
2023/05/04 09:08:19;;;;;;;1.95;0.82;;;18.30;50.10;;;;;;4953834;28;20102;-76
2023/05/04 09:10:45;;;;;;;1.67;1.17;;;18.30;49.10;;;;;;4952865;29;20055;-76
2023/05/04 09:13:11;;;;;;;3.20;1.10;;;18.10;49.50;;;;;;4953877;29;20126;-76
2023/05/04 09:15:36;;;;;;;1.33;1.05;;;18.10;51.20;;;;;;4952573;28;20039;-76
2023/05/04 09:18:08;;;;;;;1.10;0.70;;;18.20;46.90;;;;;;4953780;29;20031;-75
2023/05/04 09:20:45;;;;;;;2.35;1.15;;;18.30;45.10;;;;;;4953427;28;20038;-74
2023/05/04 09:23:12;;;;;;;2.42;0.90;;;18.30;48.40;;;;;;4953416;28;20108;-75
2023/05/04 09:25:52;;;;;;;2.85;1.33;;;18.30;53.00;;;;;;4952083;29;20035;-75
2023/05/04 09:28:20;;;;;;;2.63;1.05;;;18.50;51.90;;;;;;4953540;29;20020;-75
2023/05/04 09:30:47;;;;;;;3.47;1.30;;;18.50;49.40;;;;;;4953484;28;20031;-75
2023/05/04 09:33:24;;;;;;;2.92;1.15;;;18.40;49.20;;;;;;4952531;29;20091;-74
2023/05/04 09:35:50;;;;;;;1.00;0.70;;;18.50;50.40;;;;;;4953455;29;20550;-75
2023/05/04 09:38:30;;;;;;;2.00;1.00;;;18.60;50.20;;;;;;4953478;28;20031;-74
2023/05/04 09:40:56;;;;;;;2.25;0.82;;;18.70;49.90;;;;;;4952281;29;20035;-75
2023/05/04 09:43:23;;;;;;;1.70;0.68;;;18.80;49.60;;;;;;4951309;29;20039;-78
2023/05/04 09:45:49;;;;;;;1.08;0.90;;;18.80;48.90;;;;;;4954440;28;20023;-78
2023/05/04 09:48:25;;;;;;;4.50;1.10;;;18.90;48.70;;;;;;4958140;28;20074;-81
2023/05/04 09:50:54;;;;;;;1.83;0.93;;;19.00;49.20;;;;;;4956442;29;20034;-76
2023/05/04 09:53:26;;;;;;;2.15;1.00;;;19.10;48.50;;;;;;4956026;29;20023;-76
2023/05/04 09:56:13;;;;;;;0.93;0.70;;;19.20;48.80;;;;;;4957129;29;20031;-77
2023/05/04 09:58:39;;;;;;;2.53;1.20;;;19.20;48.20;;;;;;4956110;29;20023;-75
2023/05/04 10:01:05;;;;;;;2.00;0.95;;;19.10;47.20;;;;;;4957233;28;20035;-76
2023/05/04 10:03:31;;;;;;;4.25;1.20;;;19.20;46.90;;;;;;4955813;29;20023;-75
2023/05/04 10:05:59;;;;;;;1.00;0.65;;;19.20;45.00;;;;;;4954499;29;20500;-75
2023/05/04 10:08:26;;;;;;;1.17;0.90;;;18.90;46.80;;;;;;4955560;29;20058;-75
2023/05/04 10:10:52;;;;;;;2.03;0.98;;;18.80;47.60;;;;;;4955918;29;20038;-76
2023/05/04 10:13:18;;;;;;;1.00;0.90;;;18.90;48.90;;;;;;4956976;28;20181;-76
2023/05/04 10:16:03;;;;;;;2.80;1.10;;;19.10;48.40;;;;;;4956851;29;20110;-76
2023/05/04 10:18:47;;;;;;;0.93;0.75;;;19.10;47.60;;;;;;4955713;29;20024;-76
2023/05/04 10:21:32;;;;;;;1.67;0.90;;;19.40;47.40;;;;;;4955684;29;20027;-76
2023/05/04 10:24:16;;;;;;;1.65;0.98;;;19.30;46.00;;;;;;4955474;29;20096;-76
2023/05/04 10:27:12;;;;;;;7.93;1.27;;;19.30;48.00;;;;;;4956729;29;20431;-76
2023/05/04 10:29:39;;;;;;;1.92;0.93;;;19.20;47.50;;;;;;4952691;29;20118;-77
2023/05/04 10:32:16;;;;;;;1.65;1.15;;;19.20;47.30;;;;;;4956746;28;20387;-76
2023/05/04 10:34:41;;;;;;;1.08;0.82;;;19.50;48.60;;;;;;4956768;29;20059;-77
2023/05/04 10:37:18;;;;;;;4.72;1.00;;;19.70;48.50;;;;;;4957088;29;20063;-77
2023/05/04 10:39:54;;;;;;;3.22;0.80;;;19.90;49.30;;;;;;4955645;29;20031;-79
2023/05/04 10:42:20;;;;;;;1.50;0.80;;;19.80;47.40;;;;;;4956697;28;20402;-77
2023/05/04 10:44:53;;;;;;;5.32;1.08;;;19.60;46.80;;;;;;4956357;28;20037;-77
2023/05/04 10:47:34;;;;;;;1.65;0.70;;;19.60;46.80;;;;;;4956854;28;20030;-77
2023/05/04 10:50:07;;;;;;;2.05;0.95;;;19.70;47.20;;;;;;4956270;28;20024;-76
2023/05/04 10:52:55;;;;;;;2.72;1.30;;;19.50;45.40;;;;;;4959773;28;20102;-88
2023/05/04 10:55:21;;;;;;;4.78;0.77;;;19.70;46.70;;;;;;4956904;29;20030;-77
2023/05/04 10:57:52;;;;;;;4.00;0.80;;;19.70;45.90;;;;;;4955886;28;20034;-76
2023/05/04 11:00:19;;;;;;;1.05;0.80;;;19.80;45.90;;;;;;4956345;28;20396;-76
2023/05/04 11:02:47;;;;;;;1.10;0.75;;;19.90;45.50;;;;;;4956242;29;20015;-76
2023/05/04 11:05:18;;;;;;;1.50;1.23;;;20.00;46.80;;;;;;4954931;29;20503;-76
2023/05/04 11:07:45;;;;;;;2.72;0.90;;;19.70;45.40;;;;;;4956211;28;20027;-77
2023/05/04 11:10:22;;;;;;;1.25;0.90;;;19.80;46.50;;;;;;4954762;29;20392;-76
2023/05/04 11:12:48;;;;;;;1.58;1.40;;;19.80;47.70;;;;;;4956111;29;20015;-76
2023/05/04 11:15:13;;;;;;;3.65;1.10;;;20.00;47.30;;;;;;4955887;29;20106;-77
2023/05/04 11:17:50;;;;;;;3.05;0.90;;;20.00;47.40;;;;;;4955826;29;20484;-76
2023/05/04 11:20:25;;;;;;;0.98;0.88;;;19.70;47.40;;;;;;4955739;29;20029;-75
2023/05/04 11:22:52;;;;;;;2.60;0.70;;;20.00;47.70;;;;;;4954572;29;20162;-76
2023/05/04 11:25:29;;;;;;;3.17;1.23;;;19.90;47.00;;;;;;4954487;29;20035;-75
2023/05/04 11:27:55;;;;;;;7.95;1.38;;;19.70;46.70;;;;;;4954390;29;20484;-76
2023/05/04 11:30:30;;;;;;;1.45;1.00;;;19.60;47.70;;;;;;4954436;29;20031;-76
2023/05/04 11:32:58;;;;;;;1.08;0.50;;;19.60;46.80;;;;;;4955831;28;20432;-76
2023/05/04 11:35:24;;;;;;;4.65;1.27;;;19.70;46.10;;;;;;4955542;28;20023;-76
2023/05/04 11:37:50;;;;;;;1.55;1.30;;;20.00;46.90;;;;;;4955365;29;20034;-75
2023/05/04 11:40:19;;;;;;;1.58;0.73;;;20.30;46.70;;;;;;4954278;29;20063;-76
2023/05/04 11:42:45;;;;;;;1.33;1.02;;;20.20;45.90;;;;;;4954015;29;20114;-76
2023/05/04 11:45:18;;;;;;;1.83;1.23;;;20.40;48.30;;;;;;4955430;28;20171;-76
2023/05/04 11:47:45;;;;;;;3.17;0.90;;;20.40;46.50;;;;;;4954036;29;20026;-76
2023/05/04 11:50:13;;;;;;;3.22;1.10;;;20.20;46.70;;;;;;4955065;29;20104;-76
2023/05/04 11:52:40;;;;;;;1.40;1.17;;;20.50;47.80;;;;;;4955224;28;20431;-75
2023/05/04 11:55:08;;;;;;;2.00;1.00;;;20.60;47.10;;;;;;4955159;28;20030;-76
2023/05/04 11:57:36;;;;;;;0.80;0.77;;;20.50;46.50;;;;;;4955465;28;20035;-79
2023/05/04 12:00:07;;;;;;;2.42;0.80;;;20.30;46.40;;;;;;4956059;28;20083;-77
2023/05/04 12:02:33;;;;;;;1.48;0.90;;;20.10;46.30;;;;;;4954481;29;20027;-79
2023/05/04 12:04:59;;;;;;;1.27;0.90;;;20.10;46.10;;;;;;4955689;29;20027;-77
2023/05/04 12:07:25;;;;;;;1.70;0.95;;;20.30;47.20;;;;;;4955333;29;20385;-77
2023/05/04 12:09:51;;;;;;;0.95;0.80;;;20.30;47.10;;;;;;4954472;28;20027;-79
2023/05/04 12:12:19;;;;;;;2.35;0.82;;;20.30;47.60;;;;;;4954488;29;20525;-79
2023/05/04 12:14:53;;;;;;;2.50;0.93;;;20.60;47.80;;;;;;4954592;29;20480;-79
2023/05/04 12:17:19;;;;;;;1.10;0.82;;;20.70;47.20;;;;;;4955904;29;20038;-79
2023/05/04 12:19:53;;;;;;;0.80;0.70;;;20.70;46.60;;;;;;4954903;29;20023;-78
2023/05/04 12:22:29;;;;;;;2.00;0.70;;;20.70;45.30;;;;;;4955746;29;20079;-78
2023/05/04 12:24:58;;;;;;;5.03;1.30;;;20.80;45.50;;;;;;4954507;29;20401;-79
2023/05/04 12:27:27;;;;;;;2.50;0.85;;;20.80;45.50;;;;;;4955644;28;20102;-79
2023/05/04 12:29:53;;;;;;;3.38;1.35;;;20.60;45.50;;;;;;4955831;28;20078;-79
2023/05/04 12:32:20;;;;;;;2.53;1.02;;;20.60;46.00;;;;;;4955709;28;20443;-79
2023/05/04 12:34:46;;;;;;;1.27;0.95;;;20.50;44.80;;;;;;4955589;28;20081;-79
2023/05/04 12:37:11;;;;;;;1.73;0.90;;;20.50;45.10;;;;;;4954410;29;20031;-80
2023/05/04 12:39:38;;;;;;;1.92;1.10;;;20.30;44.90;;;;;;4954119;29;20027;-79
2023/05/04 12:42:04;;;;;;;3.13;1.08;;;20.40;45.60;;;;;;4954735;29;20031;-79
2023/05/04 12:44:30;;;;;;;1.20;1.10;;;20.70;48.00;;;;;;4955229;28;20444;-79
2023/05/04 12:46:56;;;;;;;0.95;0.63;;;20.90;45.80;;;;;;4955664;29;20031;-79
2023/05/04 12:49:22;;;;;;;1.02;0.98;;;21.20;47.70;;;;;;4954409;29;20465;-80
2023/05/04 12:51:49;;;;;;;0.95;0.90;;;21.40;45.60;;;;;;4955493;28;20031;-79
2023/05/04 12:54:15;;;;;;;1.98;1.17;;;21.10;45.00;;;;;;4954113;29;20059;-80